Time;durP1;ratioP1;P1;durP2;ratioP2;P2;SDS_P1;SDS_P2;PMS_P1;PMS_P2;Temp;Humidity;BMP_temperature;BMP_pressure;BME280_temperature;BME280_humidity;BME280_pressure;Samples;Min_cycle;Max_cycle;Signal;HPM_P1;HPM_P2
2021/12/30 00:00:36;;;;;;;28.30;5.90;;;10.10;99.90;;;;;;4994657;28;20042;-88
2021/12/30 00:03:02;;;;;;;27.23;7.28;;;10.00;99.90;;;;;;5007992;28;20476;-88
2021/12/30 00:05:28;;;;;;;32.25;6.55;;;10.00;99.90;;;;;;5011333;28;20042;-89
2021/12/30 00:07:54;;;;;;;24.30;5.72;;;10.00;99.90;;;;;;5012472;28;20041;-89
2021/12/30 00:10:20;;;;;;;32.95;6.30;;;9.90;99.90;;;;;;5012466;28;20033;-89
2021/12/30 00:12:47;;;;;;;32.20;6.53;;;9.90;99.90;;;;;;5012239;28;20495;-89
2021/12/30 00:15:13;;;;;;;32.75;7.25;;;9.90;99.90;;;;;;4995429;28;20133;-89
2021/12/30 00:17:38;;;;;;;30.05;7.18;;;9.90;99.90;;;;;;5012098;28;20701;-89
2021/12/30 00:20:06;;;;;;;37.17;6.72;;;9.90;99.90;;;;;;4995789;28;20495;-88
2021/12/30 00:22:33;;;;;;;35.60;6.97;;;9.90;99.90;;;;;;5011907;28;20046;-88
2021/12/30 00:24:58;;;;;;;32.90;6.72;;;9.90;99.90;;;;;;5011384;28;20042;-88
2021/12/30 00:27:24;;;;;;;32.70;7.00;;;9.90;99.90;;;;;;5011832;28;20037;-89
2021/12/30 00:29:50;;;;;;;32.33;7.18;;;9.90;99.90;;;;;;5011305;28;20046;-89
2021/12/30 00:32:15;;;;;;;27.75;7.35;;;9.80;99.90;;;;;;5028263;28;20060;-89
2021/12/30 00:34:41;;;;;;;32.95;6.65;;;9.80;99.90;;;;;;5027619;28;20041;-89
2021/12/30 00:37:06;;;;;;;33.40;7.80;;;9.70;99.90;;;;;;5028051;28;20127;-89
2021/12/30 00:39:32;;;;;;;34.42;6.95;;;9.70;99.90;;;;;;4995630;28;20411;-89
2021/12/30 00:41:58;;;;;;;37.80;7.90;;;9.70;99.90;;;;;;5027841;28;20077;-89
2021/12/30 00:44:23;;;;;;;32.97;7.15;;;9.60;99.90;;;;;;4995462;28;20044;-89
2021/12/30 00:46:49;;;;;;;30.23;7.00;;;9.60;99.90;;;;;;5006521;28;20072;-89
2021/12/30 00:49:15;;;;;;;33.17;7.53;;;9.60;99.90;;;;;;5017817;28;20054;-89
2021/12/30 00:51:40;;;;;;;36.53;7.88;;;9.60;99.90;;;;;;4997498;28;20037;-89
2021/12/30 00:54:06;;;;;;;33.40;7.65;;;9.60;99.90;;;;;;5009255;28;20030;-89
2021/12/30 00:56:32;;;;;;;31.63;7.25;;;9.50;99.90;;;;;;4993079;28;20042;-89
2021/12/30 00:58:57;;;;;;;37.45;7.30;;;9.50;99.90;;;;;;4976600;28;20450;-89
2021/12/30 01:01:24;;;;;;;34.35;8.23;;;9.50;99.90;;;;;;4975561;28;20527;-88
2021/12/30 01:03:53;;;;;;;36.20;8.15;;;9.50;99.90;;;;;;4983828;28;20066;-88
2021/12/30 01:06:19;;;;;;;35.03;7.55;;;9.40;99.90;;;;;;5011094;28;20033;-89
2021/12/30 01:08:45;;;;;;;32.67;7.45;;;9.40;99.90;;;;;;5011232;28;20407;-88
2021/12/30 01:11:12;;;;;;;30.73;6.57;;;9.40;99.90;;;;;;5011037;28;20129;-89
2021/12/30 01:13:43;;;;;;;35.00;8.73;;;9.40;99.90;;;;;;5010685;28;20045;-88
2021/12/30 01:16:22;;;;;;;30.58;6.95;;;9.40;99.90;;;;;;5010862;28;20111;-89
2021/12/30 01:19:01;;;;;;;29.90;7.53;;;9.30;99.90;;;;;;5011073;28;20120;-88
2021/12/30 01:21:29;;;;;;;35.53;7.68;;;9.30;99.90;;;;;;5011111;28;20042;-89
2021/12/30 01:23:56;;;;;;;36.03;8.32;;;9.30;99.90;;;;;;5010621;28;20095;-89
2021/12/30 01:26:22;;;;;;;27.85;6.88;;;9.20;99.90;;;;;;4994147;28;20049;-89
2021/12/30 01:28:49;;;;;;;30.70;7.32;;;9.20;99.90;;;;;;4994188;28;20048;-89
2021/12/30 01:31:17;;;;;;;35.40;7.60;;;9.20;99.90;;;;;;5010870;28;20037;-89
2021/12/30 01:33:44;;;;;;;37.17;7.28;;;9.20;99.90;;;;;;5010491;28;20049;-88
2021/12/30 01:36:11;;;;;;;37.08;7.72;;;9.20;99.90;;;;;;5009992;28;20056;-89
2021/12/30 01:38:37;;;;;;;31.58;7.00;;;9.20;99.90;;;;;;5010692;28;20077;-89
2021/12/30 01:41:04;;;;;;;30.92;7.18;;;9.20;99.90;;;;;;4993962;28;20049;-88
2021/12/30 01:43:33;;;;;;;36.03;7.95;;;9.20;99.90;;;;;;5010435;28;20125;-89
2021/12/30 01:45:58;;;;;;;37.42;8.52;;;9.20;99.90;;;;;;5010391;28;20491;-89
2021/12/30 01:48:24;;;;;;;34.58;7.38;;;9.10;99.90;;;;;;5010604;28;20128;-89
2021/12/30 01:50:50;;;;;;;29.40;7.60;;;9.00;99.90;;;;;;5010705;28;20129;-89
2021/12/30 01:53:16;;;;;;;32.10;7.43;;;9.00;99.90;;;;;;5010410;28;20042;-88
2021/12/30 01:55:43;;;;;;;33.30;6.65;;;9.00;99.90;;;;;;5010197;28;20045;-89
2021/12/30 01:58:09;;;;;;;35.90;8.20;;;9.00;99.90;;;;;;5010106;28;20042;-89
2021/12/30 02:00:39;;;;;;;32.15;7.80;;;9.00;99.90;;;;;;5010438;28;20050;-89
2021/12/30 02:03:05;;;;;;;37.38;7.38;;;9.00;99.90;;;;;;5010062;28;20165;-89
2021/12/30 02:05:32;;;;;;;41.03;8.38;;;8.90;99.90;;;;;;4992588;28;20718;-88
2021/12/30 02:07:58;;;;;;;35.05;8.30;;;8.90;99.90;;;;;;4992946;28;20057;-88
2021/12/30 02:10:24;;;;;;;32.75;7.40;;;9.00;99.90;;;;;;4993601;28;20056;-88
2021/12/30 02:12:50;;;;;;;35.58;8.18;;;9.00;99.90;;;;;;4993015;28;20457;-88
2021/12/30 02:15:18;;;;;;;36.45;7.78;;;9.00;99.90;;;;;;5005878;28;20038;-88
2021/12/30 02:17:48;;;;;;;39.78;8.32;;;9.00;99.90;;;;;;4990470;28;20412;-88
2021/12/30 02:20:37;;;;;;;36.35;8.40;;;9.10;99.90;;;;;;4974450;28;20050;-88
2021/12/30 02:23:03;;;;;;;35.80;8.95;;;9.20;99.90;;;;;;4993799;28;20095;-88
2021/12/30 02:25:29;;;;;;;39.67;9.27;;;9.20;99.90;;;;;;5009615;28;20042;-88
2021/12/30 02:27:55;;;;;;;38.80;9.68;;;9.30;99.90;;;;;;4993131;28;20461;-88
2021/12/30 02:30:21;;;;;;;36.28;9.45;;;9.30;99.90;;;;;;5009847;28;20583;-88
2021/12/30 02:32:46;;;;;;;41.45;10.68;;;9.40;99.90;;;;;;5009812;28;20064;-88
2021/12/30 02:35:12;;;;;;;39.47;11.55;;;9.40;99.90;;;;;;4993366;28;20069;-88
2021/12/30 02:37:38;;;;;;;43.15;11.65;;;9.50;99.90;;;;;;5009527;28;20069;-88
2021/12/30 02:40:05;;;;;;;36.55;11.38;;;9.50;99.90;;;;;;5009999;28;20091;-88
2021/12/30 02:42:31;;;;;;;41.88;11.95;;;9.60;99.90;;;;;;4993284;28;20045;-88
2021/12/30 02:44:57;;;;;;;45.03;12.80;;;9.70;99.90;;;;;;5009882;28;20038;-88
2021/12/30 02:47:22;;;;;;;40.13;14.60;;;9.70;99.90;;;;;;5009699;28;20046;-88
2021/12/30 02:49:48;;;;;;;44.17;15.07;;;9.70;99.90;;;;;;4993526;28;20145;-88
2021/12/30 02:52:14;;;;;;;36.80;14.50;;;9.80;99.90;;;;;;5009835;28;20085;-88
2021/12/30 02:54:42;;;;;;;43.58;14.95;;;9.90;99.90;;;;;;5009349;28;20060;-88
2021/12/30 02:57:08;;;;;;;46.85;16.75;;;9.90;99.90;;;;;;4993317;28;20050;-88
2021/12/30 02:59:34;;;;;;;46.00;16.45;;;10.00;99.90;;;;;;5009300;28;20491;-88
2021/12/30 03:02:00;;;;;;;47.75;16.63;;;10.00;99.90;;;;;;5009853;28;20088;-88
2021/12/30 03:04:26;;;;;;;48.08;16.98;;;10.00;99.90;;;;;;5008188;28;20038;-88
2021/12/30 03:06:53;;;;;;;51.28;18.75;;;10.10;99.90;;;;;;5025575;28;20246;-89
2021/12/30 03:09:19;;;;;;;47.13;17.48;;;10.10;99.90;;;;;;5010006;28;20046;-88
2021/12/30 03:11:44;;;;;;;49.45;18.67;;;10.10;99.90;;;;;;4992960;28;20037;-88
2021/12/30 03:14:10;;;;;;;53.30;18.55;;;10.10;99.90;;;;;;5009489;28;20129;-88
2021/12/30 03:16:37;;;;;;;55.45;18.30;;;10.20;99.90;;;;;;4993111;28;20414;-88
2021/12/30 03:19:04;;;;;;;46.63;18.08;;;10.20;99.90;;;;;;4993468;28;20065;-88
2021/12/30 03:21:31;;;;;;;46.80;18.25;;;10.20;99.90;;;;;;5009369;28;20053;-88
2021/12/30 03:23:59;;;;;;;50.38;17.23;;;10.30;99.90;;;;;;4993012;28;20038;-88
2021/12/30 03:26:24;;;;;;;48.10;18.05;;;10.30;99.90;;;;;;4995920;28;20045;-88
2021/12/30 03:28:51;;;;;;;43.85;18.15;;;10.30;99.90;;;;;;4996298;28;20038;-88
2021/12/30 03:31:18;;;;;;;48.17;18.55;;;10.40;99.90;;;;;;5013116;28;20139;-88
2021/12/30 03:33:44;;;;;;;45.50;18.58;;;10.40;99.90;;;;;;4996163;28;20050;-89
2021/12/30 03:36:11;;;;;;;45.67;18.27;;;10.50;99.90;;;;;;5012538;28;20041;-88
2021/12/30 03:38:41;;;;;;;48.50;19.30;;;10.50;99.90;;;;;;5012978;28;20050;-88
2021/12/30 03:41:09;;;;;;;56.22;19.40;;;10.50;99.90;;;;;;4996548;28;20052;-88
2021/12/30 03:43:35;;;;;;;49.80;19.40;;;10.60;99.90;;;;;;4995985;28;20045;-89
2021/12/30 03:46:02;;;;;;;42.65;18.23;;;10.60;99.90;;;;;;4996238;28;20045;-88
2021/12/30 03:48:34;;;;;;;47.50;18.30;;;10.60;99.90;;;;;;4996187;28;20658;-89
2021/12/30 03:51:06;;;;;;;43.83;16.50;;;10.70;99.90;;;;;;4996295;28;20034;-89
2021/12/30 03:53:39;;;;;;;45.20;16.80;;;10.70;99.90;;;;;;5012386;28;20042;-88
2021/12/30 03:56:07;;;;;;;47.05;17.35;;;10.80;99.90;;;;;;5028876;28;20049;-88
2021/12/30 03:58:33;;;;;;;48.85;16.92;;;10.80;99.90;;;;;;4996029;28;20108;-88
2021/12/30 04:00:59;;;;;;;44.38;16.05;;;10.80;99.90;;;;;;5012599;28;20050;-88
2021/12/30 04:03:25;;;;;;;41.53;15.80;;;10.80;99.90;;;;;;4995271;28;20078;-88
2021/12/30 04:05:50;;;;;;;43.28;16.45;;;10.80;99.90;;;;;;5012419;28;20080;-88
2021/12/30 04:08:16;;;;;;;43.35;17.05;;;10.80;99.90;;;;;;5012029;28;20041;-88
2021/12/30 04:10:42;;;;;;;45.83;16.63;;;10.80;99.90;;;;;;4996027;28;20125;-88
2021/12/30 04:13:08;;;;;;;49.15;16.65;;;10.80;99.90;;;;;;5012209;28;20579;-88
2021/12/30 04:15:33;;;;;;;39.38;15.13;;;10.80;99.90;;;;;;5011818;28;20038;-88
2021/12/30 04:17:59;;;;;;;44.80;15.82;;;10.80;99.90;;;;;;4995611;28;20088;-88
2021/12/30 04:20:25;;;;;;;40.80;15.63;;;10.80;99.90;;;;;;5012264;28;20038;-88
2021/12/30 04:22:50;;;;;;;47.17;15.60;;;10.80;99.90;;;;;;4995868;28;20041;-88
2021/12/30 04:25:17;;;;;;;41.63;16.23;;;10.80;99.90;;;;;;5011466;28;20527;-88
2021/12/30 04:27:44;;;;;;;42.53;15.70;;;10.80;99.90;;;;;;4995439;28;20053;-88
2021/12/30 04:30:12;;;;;;;43.25;16.95;;;10.90;99.90;;;;;;4995391;28;20046;-88
2021/12/30 04:32:38;;;;;;;46.58;15.85;;;10.90;99.90;;;;;;4995377;28;20049;-89
2021/12/30 04:35:06;;;;;;;41.45;16.45;;;10.90;99.90;;;;;;5011825;28;20125;-88
2021/12/30 04:37:32;;;;;;;50.63;17.05;;;10.90;99.90;;;;;;4994922;28;20073;-89
2021/12/30 04:39:57;;;;;;;45.45;18.25;;;10.90;99.90;;;;;;5011932;28;20495;-89
2021/12/30 04:42:23;;;;;;;41.30;18.17;;;11.00;99.90;;;;;;5011315;28;20045;-88
2021/12/30 04:44:49;;;;;;;47.72;17.13;;;11.00;99.90;;;;;;5011385;28;20048;-89
2021/12/30 04:47:15;;;;;;;54.30;19.30;;;11.00;99.90;;;;;;5028073;28;20053;-89
2021/12/30 04:49:41;;;;;;;49.47;19.83;;;11.00;99.90;;;;;;5011461;28;20045;-89
2021/12/30 04:52:07;;;;;;;52.03;19.55;;;11.00;99.90;;;;;;5011228;28;20034;-89
2021/12/30 04:54:33;;;;;;;52.42;19.63;;;11.10;99.90;;;;;;5010928;28;20180;-89
2021/12/30 04:56:59;;;;;;;46.53;20.30;;;11.10;99.90;;;;;;4994953;28;20049;-89
2021/12/30 04:59:24;;;;;;;53.83;21.27;;;11.10;99.90;;;;;;4994379;28;20042;-89
2021/12/30 05:01:50;;;;;;;55.97;20.98;;;11.10;99.90;;;;;;5011157;28;20165;-88
2021/12/30 05:04:16;;;;;;;45.60;21.38;;;11.10;99.90;;;;;;5010188;28;20045;-89
2021/12/30 05:06:42;;;;;;;52.88;21.88;;;11.10;99.90;;;;;;4992835;28;20411;-89
2021/12/30 05:09:08;;;;;;;48.80;19.77;;;11.10;99.90;;;;;;5010728;28;20040;-89
2021/12/30 05:11:36;;;;;;;52.40;21.85;;;11.10;99.90;;;;;;4994474;28;20096;-88
2021/12/30 05:14:02;;;;;;;49.67;19.42;;;11.20;99.90;;;;;;5010876;28;20380;-89
2021/12/30 05:16:28;;;;;;;51.08;21.13;;;11.20;99.90;;;;;;5010910;28;20046;-89
2021/12/30 05:18:57;;;;;;;46.63;20.25;;;11.20;99.90;;;;;;4993967;28;20045;-89
2021/12/30 05:21:24;;;;;;;44.33;19.88;;;11.20;99.90;;;;;;4994286;28;20419;-88
2021/12/30 05:23:50;;;;;;;37.30;18.88;;;11.20;99.90;;;;;;5010585;28;20049;-89
2021/12/30 05:26:16;;;;;;;42.08;18.55;;;11.20;99.90;;;;;;5010131;28;20034;-88
2021/12/30 05:28:42;;;;;;;36.85;17.92;;;11.20;99.90;;;;;;4993623;28;20030;-88
2021/12/30 05:31:08;;;;;;;40.17;19.17;;;11.20;99.90;;;;;;4994074;28;20038;-88
2021/12/30 05:33:34;;;;;;;37.85;17.90;;;11.30;99.90;;;;;;5010337;28;20561;-89
2021/12/30 05:36:00;;;;;;;38.10;18.83;;;11.30;99.90;;;;;;5009384;28;20033;-88
2021/12/30 05:38:25;;;;;;;37.13;18.52;;;11.30;99.90;;;;;;5009493;28;20483;-88
2021/12/30 05:40:51;;;;;;;36.42;18.08;;;11.30;99.90;;;;;;5010954;28;20049;-89
2021/12/30 05:43:17;;;;;;;33.60;17.55;;;11.40;99.90;;;;;;4993833;28;20049;-89
2021/12/30 05:45:43;;;;;;;36.03;18.45;;;11.40;99.90;;;;;;4994249;28;20053;-89
2021/12/30 05:48:08;;;;;;;35.97;18.35;;;11.40;99.90;;;;;;5009600;28;20454;-89
2021/12/30 05:50:34;;;;;;;37.00;19.77;;;11.40;99.90;;;;;;5010782;28;20492;-88
2021/12/30 05:53:00;;;;;;;37.25;18.00;;;11.40;99.90;;;;;;4994010;28;20060;-89
2021/12/30 05:55:28;;;;;;;36.17;18.42;;;11.40;99.90;;;;;;5009799;28;20493;-89
2021/12/30 05:57:54;;;;;;;36.15;18.00;;;11.50;99.90;;;;;;4993256;28;20045;-88
2021/12/30 06:00:22;;;;;;;39.05;17.98;;;11.50;99.90;;;;;;5009858;28;20041;-88
2021/12/30 06:02:48;;;;;;;34.05;19.30;;;11.50;99.90;;;;;;5010240;28;20052;-88
2021/12/30 06:05:14;;;;;;;41.35;19.25;;;11.60;99.90;;;;;;5009726;28;20034;-89
2021/12/30 06:07:40;;;;;;;38.25;20.38;;;11.60;99.90;;;;;;4993179;28;20065;-88
2021/12/30 06:10:07;;;;;;;41.78;19.40;;;11.60;99.90;;;;;;5010044;28;20116;-88
2021/12/30 06:12:33;;;;;;;38.30;20.73;;;11.70;99.90;;;;;;5015940;28;20033;-89
2021/12/30 06:14:58;;;;;;;35.22;19.40;;;11.70;99.90;;;;;;5002281;28;20577;-89
2021/12/30 06:17:24;;;;;;;37.97;19.73;;;11.80;99.90;;;;;;5011900;28;20121;-89
2021/12/30 06:19:57;;;;;;;40.75;20.50;;;11.80;99.90;;;;;;5012322;28;20084;-89
2021/12/30 06:22:22;;;;;;;;;;;11.90;99.90;;;;;;5011612;28;20522;-89
2021/12/30 06:24:48;;;;;;;43.95;19.52;;;11.80;99.90;;;;;;5010892;28;19917;-89
2021/12/30 06:27:14;;;;;;;39.78;20.77;;;11.90;99.90;;;;;;5010194;28;20038;-89
2021/12/30 06:29:39;;;;;;;41.85;21.67;;;11.90;99.90;;;;;;5009815;28;20041;-89
2021/12/30 06:32:06;;;;;;;41.45;21.17;;;11.90;99.90;;;;;;4993327;28;20121;-89
2021/12/30 06:34:32;;;;;;;40.53;20.95;;;11.90;99.90;;;;;;5009595;28;20518;-89
2021/12/30 06:36:58;;;;;;;41.05;19.40;;;12.00;99.90;;;;;;5009084;28;20065;-89
2021/12/30 06:39:23;;;;;;;38.95;20.80;;;12.00;99.90;;;;;;4992819;28;20070;-89
2021/12/30 06:41:49;;;;;;;42.75;20.63;;;12.00;99.90;;;;;;5009031;28;20034;-89
2021/12/30 06:44:15;;;;;;;36.28;20.27;;;12.00;99.90;;;;;;5008310;28;20045;-89
2021/12/30 06:46:49;;;;;;;36.75;19.65;;;12.10;99.90;;;;;;4993182;28;20073;-89
2021/12/30 06:49:15;;;;;;;38.47;19.50;;;12.10;99.90;;;;;;4993142;28;20040;-89
2021/12/30 06:51:40;;;;;;;35.65;20.50;;;12.10;99.90;;;;;;5009397;28;20034;-89
2021/12/30 06:54:06;;;;;;;36.47;19.35;;;12.10;99.90;;;;;;5009298;28;20049;-88
2021/12/30 06:56:33;;;;;;;35.97;19.95;;;12.10;99.90;;;;;;4993085;28;20046;-89
2021/12/30 06:58:59;;;;;;;34.75;19.20;;;12.20;99.90;;;;;;4992858;28;20046;-89
2021/12/30 07:01:24;;;;;;;37.60;19.67;;;12.20;99.90;;;;;;5012540;28;20630;-89
2021/12/30 07:03:50;;;;;;;35.22;19.17;;;12.20;99.90;;;;;;4995558;28;20053;-88
2021/12/30 07:06:15;;;;;;;32.35;19.30;;;12.20;99.90;;;;;;5010252;28;20406;-87
2021/12/30 07:08:41;;;;;;;32.00;19.17;;;12.20;99.90;;;;;;4996484;28;20463;-88
2021/12/30 07:11:07;;;;;;;36.55;19.92;;;12.30;99.90;;;;;;5013606;28;20029;-87
2021/12/30 07:13:33;;;;;;;33.55;19.33;;;12.20;99.90;;;;;;4996277;28;20053;-87
2021/12/30 07:15:59;;;;;;;31.27;19.45;;;12.20;99.90;;;;;;4997296;28;20052;-88
2021/12/30 07:18:24;;;;;;;35.50;19.17;;;12.30;99.90;;;;;;4996735;28;20037;-87
2021/12/30 07:20:50;;;;;;;36.38;19.95;;;12.30;99.90;;;;;;4996414;28;20104;-88
2021/12/30 07:23:15;;;;;;;33.28;18.63;;;12.30;99.90;;;;;;5012061;28;20038;-88
2021/12/30 07:25:41;;;;;;;34.70;19.98;;;12.30;99.90;;;;;;4996378;28;20042;-89
2021/12/30 07:28:07;;;;;;;33.55;18.70;;;12.30;99.90;;;;;;4995961;28;20037;-89
2021/12/30 07:30:33;;;;;;;29.73;17.17;;;12.30;99.90;;;;;;5012151;28;20466;-89
2021/12/30 07:32:59;;;;;;;24.83;15.18;;;12.30;99.90;;;;;;4995544;28;20038;-89
2021/12/30 07:35:26;;;;;;;27.58;15.43;;;12.30;99.90;;;;;;5012131;28;20042;-90
2021/12/30 07:37:52;;;;;;;22.73;13.30;;;12.30;99.90;;;;;;4994826;28;20083;-89
2021/12/30 07:40:18;;;;;;;20.70;12.68;;;12.30;99.90;;;;;;4996114;28;20410;-90
2021/12/30 07:42:44;;;;;;;20.42;11.98;;;12.30;99.90;;;;;;4995189;28;20053;-89
2021/12/30 07:45:11;;;;;;;18.77;10.40;;;12.30;99.90;;;;;;4996144;28;20034;-89
2021/12/30 07:47:40;;;;;;;16.08;10.18;;;12.40;99.90;;;;;;5012146;28;20038;-89
2021/12/30 07:50:07;;;;;;;16.23;9.88;;;12.30;99.90;;;;;;5012449;28;20080;-89
2021/12/30 07:52:34;;;;;;;13.82;8.32;;;12.40;99.90;;;;;;5028850;28;20100;-89
2021/12/30 07:55:00;;;;;;;13.52;8.32;;;12.40;99.90;;;;;;4995517;28;20056;-89
2021/12/30 07:57:26;;;;;;;12.93;7.32;;;12.40;99.90;;;;;;5029027;28;20132;-89
2021/12/30 07:59:52;;;;;;;12.35;7.07;;;12.40;99.90;;;;;;4995658;28;20102;-89
2021/12/30 08:02:19;;;;;;;11.00;6.57;;;12.40;99.90;;;;;;5028507;28;20554;-90
2021/12/30 08:04:44;;;;;;;11.45;6.30;;;12.40;99.90;;;;;;5014303;28;20400;-90
2021/12/30 08:07:10;;;;;;;11.05;6.90;;;12.40;99.90;;;;;;4995879;28;20480;-89
2021/12/30 08:09:36;;;;;;;10.43;6.53;;;12.40;99.90;;;;;;4995414;28;20037;-89
2021/12/30 08:12:02;;;;;;;11.95;6.38;;;12.40;99.90;;;;;;5010501;28;20037;-89
2021/12/30 08:14:28;;;;;;;10.10;6.10;;;12.40;99.90;;;;;;4995585;28;20070;-89
2021/12/30 08:16:54;;;;;;;9.18;5.32;;;12.50;99.90;;;;;;5011639;28;20621;-89
2021/12/30 08:19:20;;;;;;;9.38;5.20;;;12.40;99.90;;;;;;5011858;28;20038;-89
2021/12/30 08:21:46;;;;;;;9.50;5.63;;;12.50;99.90;;;;;;4995656;28;20045;-89
2021/12/30 08:24:12;;;;;;;8.27;4.95;;;12.50;99.90;;;;;;5011436;28;20042;-89
2021/12/30 08:26:38;;;;;;;9.20;4.90;;;12.50;99.90;;;;;;5011728;28;20042;-89
2021/12/30 08:29:05;;;;;;;9.88;5.22;;;12.50;99.90;;;;;;5011050;28;20034;-89
2021/12/30 08:31:33;;;;;;;9.07;5.55;;;12.50;99.90;;;;;;4995342;28;20034;-88
2021/12/30 08:33:59;;;;;;;9.55;5.68;;;12.50;99.90;;;;;;4994980;28;20041;-89
2021/12/30 08:36:25;;;;;;;10.20;6.05;;;12.50;99.90;;;;;;4995071;28;20088;-89
2021/12/30 08:38:50;;;;;;;10.05;6.18;;;12.50;99.90;;;;;;5011380;28;20045;-89
2021/12/30 08:41:16;;;;;;;10.50;6.80;;;12.50;99.90;;;;;;5010952;28;20038;-89
2021/12/30 08:43:41;;;;;;;10.23;7.38;;;12.60;99.90;;;;;;5011233;28;20132;-89
2021/12/30 08:46:07;;;;;;;13.48;8.88;;;12.60;99.90;;;;;;4995076;28;20042;-89
2021/12/30 08:48:33;;;;;;;14.55;9.80;;;12.60;99.90;;;;;;5011466;28;20046;-88
2021/12/30 08:50:58;;;;;;;13.55;10.05;;;12.70;99.90;;;;;;5010577;28;20168;-89
2021/12/30 08:53:25;;;;;;;15.35;11.02;;;12.70;99.90;;;;;;5011012;28;20038;-88
2021/12/30 08:55:52;;;;;;;16.95;11.25;;;12.70;99.90;;;;;;5011262;28;20384;-88
2021/12/30 08:58:18;;;;;;;18.70;13.15;;;12.70;99.90;;;;;;5011342;28;20046;-88
2021/12/30 09:00:46;;;;;;;18.25;13.18;;;12.80;99.90;;;;;;4994949;28;20078;-88
2021/12/30 09:03:14;;;;;;;19.73;13.90;;;12.80;99.90;;;;;;4993414;28;20463;-88
2021/12/30 09:05:40;;;;;;;19.67;13.38;;;12.90;99.90;;;;;;5011073;28;20041;-89
2021/12/30 09:08:07;;;;;;;17.83;12.35;;;12.90;99.90;;;;;;5011119;28;20582;-89
2021/12/30 09:10:37;;;;;;;16.33;11.55;;;12.90;99.90;;;;;;5010124;28;20487;-88
2021/12/30 09:13:03;;;;;;;15.60;11.50;;;13.00;99.90;;;;;;5011286;28;20044;-89
2021/12/30 09:15:30;;;;;;;17.45;11.82;;;13.00;99.90;;;;;;4994357;28;20507;-89
2021/12/30 09:17:55;;;;;;;15.15;11.35;;;13.00;99.90;;;;;;5010573;28;20052;-88
2021/12/30 09:20:22;;;;;;;17.42;11.27;;;13.00;99.90;;;;;;5011043;28;20049;-88
2021/12/30 09:22:48;;;;;;;13.60;9.80;;;13.00;99.90;;;;;;5010498;28;20041;-89
2021/12/30 09:25:17;;;;;;;15.55;10.48;;;13.00;99.90;;;;;;5010531;28;20153;-89
2021/12/30 09:27:43;;;;;;;15.55;10.48;;;13.00;99.90;;;;;;5010648;28;20034;-88
2021/12/30 09:30:12;;;;;;;13.23;9.25;;;13.00;99.90;;;;;;5009136;28;20168;-88
2021/12/30 09:32:39;;;;;;;13.40;9.98;;;13.00;99.90;;;;;;5010335;28;20037;-89
2021/12/30 09:35:05;;;;;;;14.98;9.98;;;13.10;99.90;;;;;;4994290;28;20674;-88
2021/12/30 09:37:31;;;;;;;15.00;10.35;;;13.10;99.90;;;;;;5010023;28;20103;-89
2021/12/30 09:39:59;;;;;;;15.88;10.95;;;13.10;99.90;;;;;;5009961;28;20037;-88
2021/12/30 09:42:24;;;;;;;15.30;10.43;;;13.00;99.90;;;;;;4994342;28;20077;-88
2021/12/30 09:44:50;;;;;;;16.45;11.35;;;13.10;99.90;;;;;;4993515;28;20084;-88
2021/12/30 09:47:16;;;;;;;17.88;11.05;;;13.00;99.90;;;;;;5010716;28;20038;-88
2021/12/30 09:49:41;;;;;;;16.08;10.57;;;13.00;99.90;;;;;;5010808;28;20500;-87
2021/12/30 09:52:07;;;;;;;14.95;10.13;;;13.00;99.90;;;;;;5010319;28;20172;-88
2021/12/30 09:54:32;;;;;;;17.08;11.68;;;13.00;99.90;;;;;;5010122;28;20281;-88
2021/12/30 09:56:58;;;;;;;17.40;10.85;;;13.00;99.90;;;;;;5009855;28;20057;-89
2021/12/30 09:59:25;;;;;;;16.83;10.88;;;13.00;99.90;;;;;;4993569;28;20456;-89
2021/12/30 10:01:51;;;;;;;15.88;10.38;;;13.00;99.90;;;;;;4993328;28;20038;-89
2021/12/30 10:04:17;;;;;;;13.70;10.23;;;13.00;99.90;;;;;;5008963;28;20049;-88
2021/12/30 10:06:46;;;;;;;16.77;10.32;;;13.00;99.90;;;;;;5009824;28;20073;-88
2021/12/30 10:09:15;;;;;;;17.25;10.30;;;13.00;99.90;;;;;;5010858;28;20097;-88
2021/12/30 10:11:56;;;;;;;18.40;10.45;;;13.00;99.90;;;;;;4994220;28;20038;-89
2021/12/30 10:14:37;;;;;;;17.67;9.68;;;13.10;99.90;;;;;;4993696;28;20045;-89
2021/12/30 10:17:36;;;;;;;15.23;8.90;;;13.10;99.90;;;;;;4993391;28;20492;-89
2021/12/30 10:20:35;;;;;;;15.80;8.68;;;13.10;99.90;;;;;;4977386;28;20824;-89
2021/12/30 10:23:09;;;;;;;18.25;8.80;;;13.10;99.90;;;;;;4968478;28;20405;-89
2021/12/30 10:25:40;;;;;;;16.60;7.72;;;13.10;99.90;;;;;;5010056;28;20041;-89
2021/12/30 10:28:37;;;;;;;15.43;7.72;;;13.20;99.90;;;;;;5008607;28;20057;-89
2021/12/30 10:31:11;;;;;;;16.02;7.22;;;13.20;99.90;;;;;;5000848;28;20057;-89
2021/12/30 10:33:50;;;;;;;17.08;6.80;;;13.20;99.90;;;;;;5009578;28;20050;-89
2021/12/30 10:36:30;;;;;;;18.80;6.40;;;13.20;99.90;;;;;;5012767;28;20395;-89
2021/12/30 10:39:42;;;;;;;16.27;6.63;;;13.20;99.90;;;;;;5013628;28;20049;-89
2021/12/30 10:42:09;;;;;;;15.20;6.20;;;13.20;99.90;;;;;;5005638;28;20058;-88
2021/12/30 10:44:52;;;;;;;17.10;7.60;;;13.20;99.90;;;;;;5021368;28;20125;-89
2021/12/30 10:47:18;;;;;;;16.67;5.97;;;13.20;99.90;;;;;;5011884;28;20072;-89
2021/12/30 10:49:59;;;;;;;18.30;6.78;;;13.20;99.90;;;;;;5011318;28;20084;-89
2021/12/30 10:52:27;;;;;;;15.15;5.65;;;13.20;99.90;;;;;;5028592;28;20042;-89
2021/12/30 10:54:53;;;;;;;17.80;6.60;;;13.10;99.90;;;;;;4995061;28;20052;-89
2021/12/30 10:57:19;;;;;;;18.23;6.72;;;13.10;99.90;;;;;;4995444;28;20405;-89
2021/12/30 10:59:49;;;;;;;16.30;5.72;;;13.10;99.90;;;;;;5006553;28;20036;-89
2021/12/30 11:02:18;;;;;;;16.65;6.38;;;13.10;99.90;;;;;;4996855;28;20431;-89
2021/12/30 11:04:50;;;;;;;18.20;6.82;;;13.10;99.90;;;;;;4998271;28;20117;-89
2021/12/30 11:07:21;;;;;;;20.55;6.68;;;13.10;99.90;;;;;;5015310;28;20136;-89
2021/12/30 11:09:58;;;;;;;22.38;6.78;;;13.10;99.90;;;;;;5014178;28;20064;-89
2021/12/30 11:12:26;;;;;;;21.45;6.65;;;13.10;99.90;;;;;;5014698;28;20518;-90
2021/12/30 11:14:53;;;;;;;19.23;6.38;;;13.10;99.90;;;;;;5013349;28;20042;-88
2021/12/30 11:17:23;;;;;;;19.90;6.07;;;13.10;99.90;;;;;;5013215;28;20042;-89
2021/12/30 11:19:53;;;;;;;24.30;7.60;;;13.10;99.90;;;;;;4996033;28;20040;-89
2021/12/30 11:22:24;;;;;;;23.17;7.63;;;13.20;99.90;;;;;;5029723;28;20531;-89
2021/12/30 11:24:52;;;;;;;21.05;6.72;;;13.10;99.90;;;;;;4996272;28;20045;-89
2021/12/30 11:27:19;;;;;;;24.65;6.93;;;13.10;99.90;;;;;;5013143;28;20034;-90
2021/12/30 11:29:48;;;;;;;21.52;6.32;;;13.10;99.90;;;;;;5028861;28;20042;-89
2021/12/30 11:32:18;;;;;;;26.98;7.57;;;13.10;99.90;;;;;;5029195;28;20038;-88
2021/12/30 11:34:45;;;;;;;23.13;6.85;;;13.10;99.90;;;;;;4995321;28;20073;-89
2021/12/30 11:37:12;;;;;;;22.42;7.25;;;13.10;99.90;;;;;;4996217;28;20038;-89
2021/12/30 11:39:45;;;;;;;27.02;7.15;;;13.10;99.90;;;;;;5029460;28;20052;-89
2021/12/30 11:42:34;;;;;;;25.67;7.63;;;13.10;99.90;;;;;;4994729;28;20128;-89
2021/12/30 11:45:02;;;;;;;24.90;7.20;;;13.10;99.90;;;;;;4995992;28;20092;-89
2021/12/30 11:47:34;;;;;;;23.33;7.63;;;13.10;99.90;;;;;;4996411;28;20045;-88
2021/12/30 11:50:08;;;;;;;29.77;7.80;;;13.10;99.90;;;;;;5028725;28;20077;-89
2021/12/30 11:52:50;;;;;;;23.65;7.43;;;13.00;99.90;;;;;;4995748;28;20853;-88
2021/12/30 11:55:48;;;;;;;24.17;7.07;;;13.00;99.90;;;;;;5011922;28;20126;-89
2021/12/30 11:58:34;;;;;;;26.02;7.65;;;13.00;99.90;;;;;;4996272;28;20045;-88
2021/12/30 12:01:04;;;;;;;25.33;7.95;;;13.00;99.90;;;;;;4995777;28;20038;-89
2021/12/30 12:03:34;;;;;;;25.35;7.78;;;13.00;99.90;;;;;;5027337;28;20046;-89
2021/12/30 12:06:00;;;;;;;29.70;8.63;;;12.90;99.90;;;;;;4995613;28;20095;-89
2021/12/30 12:08:41;;;;;;;26.50;7.40;;;13.00;99.90;;;;;;4996099;28;20420;-89
2021/12/30 12:11:19;;;;;;;26.35;7.90;;;13.00;99.90;;;;;;5011963;28;20041;-88
2021/12/30 12:13:47;;;;;;;24.45;7.68;;;13.00;99.90;;;;;;4995629;28;20087;-89
2021/12/30 12:16:36;;;;;;;23.02;6.63;;;13.00;99.90;;;;;;5028799;28;20049;-89
2021/12/30 12:19:07;;;;;;;27.08;7.38;;;13.00;99.90;;;;;;5028288;28;20503;-89
2021/12/30 12:21:53;;;;;;;24.67;7.43;;;13.00;99.90;;;;;;4994884;28;20034;-89
2021/12/30 12:24:22;;;;;;;25.42;7.30;;;13.00;99.90;;;;;;4994544;28;20038;-89
2021/12/30 12:27:02;;;;;;;23.33;6.72;;;13.00;99.90;;;;;;4991959;28;20050;-89
2021/12/30 12:29:43;;;;;;;25.00;7.18;;;13.10;99.90;;;;;;4982419;28;20046;-88
2021/12/30 12:32:18;;;;;;;24.50;7.50;;;13.10;99.90;;;;;;5008367;28;20072;-88
2021/12/30 12:34:46;;;;;;;19.80;6.40;;;13.10;99.90;;;;;;4994986;28;20057;-89
2021/12/30 12:37:29;;;;;;;24.13;7.38;;;13.10;99.90;;;;;;4995349;28;20041;-89
2021/12/30 12:40:11;;;;;;;18.73;7.03;;;13.20;99.90;;;;;;4995289;28;20053;-90